Time;durP1;ratioP1;P1;durP2;ratioP2;P2;SDS_P1;SDS_P2;PMS_P1;PMS_P2;Temp;Humidity;BMP_temperature;BMP_pressure;BME280_temperature;BME280_humidity;BME280_pressure;Samples;Min_cycle;Max_cycle;Signal;HPM_P1;HPM_P2
2022/05/07 00:00:41;;;;;;;2.78;1.30;;;15.30;97.40;;;;;;5051096;28;20216;-73
2022/05/07 00:03:09;;;;;;;1.83;1.23;;;15.30;97.10;;;;;;5050268;28;20228;-74
2022/05/07 00:05:39;;;;;;;3.40;1.40;;;15.40;96.80;;;;;;5050497;28;20259;-73
2022/05/07 00:08:07;;;;;;;2.55;1.50;;;15.40;96.90;;;;;;5050824;28;20223;-74
2022/05/07 00:10:36;;;;;;;2.22;1.30;;;15.30;96.70;;;;;;5050202;28;20189;-74
2022/05/07 00:13:04;;;;;;;2.05;1.17;;;15.20;97.30;;;;;;5049997;28;20290;-71
2022/05/07 00:15:32;;;;;;;2.78;1.55;;;15.10;96.70;;;;;;5050308;28;20259;-73
2022/05/07 00:18:03;;;;;;;1.38;1.02;;;14.90;96.80;;;;;;5050603;28;20219;-73
2022/05/07 00:20:33;;;;;;;1.70;1.30;;;14.80;97.30;;;;;;5050186;28;20211;-73
2022/05/07 00:23:02;;;;;;;2.53;1.85;;;14.60;96.90;;;;;;5049439;28;20212;-73
2022/05/07 00:25:32;;;;;;;2.08;1.30;;;14.60;97.80;;;;;;5050109;28;20766;-73
2022/05/07 00:27:59;;;;;;;2.17;1.10;;;14.50;98.50;;;;;;5051005;28;20211;-74
2022/05/07 00:30:27;;;;;;;1.10;0.90;;;14.50;98.80;;;;;;5049853;28;20223;-71
2022/05/07 00:32:55;;;;;;;2.80;1.23;;;14.50;98.80;;;;;;5048487;28;20215;-73
2022/05/07 00:35:23;;;;;;;3.03;1.77;;;14.60;99.10;;;;;;5036550;28;20319;-73
2022/05/07 00:37:51;;;;;;;2.75;1.10;;;14.70;99.20;;;;;;5035935;28;20275;-74
2022/05/07 00:40:20;;;;;;;1.90;1.40;;;14.70;99.20;;;;;;5038939;28;20200;-73
2022/05/07 00:42:48;;;;;;;2.85;0.90;;;14.80;98.90;;;;;;5038687;28;20591;-73
2022/05/07 00:45:16;;;;;;;2.53;1.67;;;14.80;98.60;;;;;;5038336;28;20259;-74
2022/05/07 00:47:45;;;;;;;2.00;1.42;;;14.60;98.80;;;;;;5050409;28;20212;-74
2022/05/07 00:52:58;;;;;;;1.27;1.17;;;14.50;98.50;;;;;;5049107;28;20208;-73
2022/05/07 00:55:30;;;;;;;2.53;1.02;;;14.50;99.30;;;;;;5050195;28;20317;-74
2022/05/07 00:57:58;;;;;;;1.10;1.00;;;14.60;99.90;;;;;;5050941;28;20244;-73
2022/05/07 01:00:26;;;;;;;2.47;1.05;;;14.60;99.30;;;;;;5053995;28;20202;-73
2022/05/07 01:02:53;;;;;;;4.30;1.38;;;14.60;99.80;;;;;;5053531;28;20274;-73
2022/05/07 01:05:22;;;;;;;1.13;1.02;;;14.60;99.70;;;;;;5053838;28;20250;-73
2022/05/07 01:07:50;;;;;;;1.55;1.45;;;14.60;99.10;;;;;;5054090;28;20294;-74
2022/05/07 01:10:19;;;;;;;2.03;1.38;;;14.60;99.90;;;;;;5053912;28;20313;-73
2022/05/07 01:12:49;;;;;;;1.80;1.20;;;14.40;98.40;;;;;;5053169;28;20212;-73
2022/05/07 01:15:16;;;;;;;1.55;1.00;;;14.40;99.90;;;;;;5053663;28;20236;-73
2022/05/07 01:17:44;;;;;;;1.63;1.35;;;14.30;99.90;;;;;;5053838;28;20250;-74
2022/05/07 01:20:14;;;;;;;2.40;1.60;;;14.30;99.80;;;;;;5053106;28;20677;-73
2022/05/07 01:22:44;;;;;;;1.33;1.23;;;14.30;99.90;;;;;;5053102;28;20204;-73
2022/05/07 01:25:12;;;;;;;1.85;1.27;;;14.20;99.90;;;;;;5053478;28;20258;-74
2022/05/07 01:27:40;;;;;;;1.27;1.17;;;14.30;99.90;;;;;;5053550;28;20271;-74
2022/05/07 01:30:09;;;;;;;1.30;1.20;;;14.20;99.90;;;;;;5052854;28;20657;-73
2022/05/07 01:32:37;;;;;;;4.85;1.42;;;14.10;99.90;;;;;;5053000;28;20660;-73
2022/05/07 01:35:05;;;;;;;1.52;1.00;;;14.10;99.80;;;;;;5052821;28;20244;-73
2022/05/07 01:37:33;;;;;;;2.80;1.05;;;14.00;99.90;;;;;;5053432;28;20208;-73
2022/05/07 01:40:03;;;;;;;1.27;1.10;;;13.90;99.90;;;;;;5053243;28;20274;-73
2022/05/07 01:42:31;;;;;;;1.38;0.85;;;14.00;99.90;;;;;;5052650;28;20234;-73
2022/05/07 01:44:59;;;;;;;1.45;1.20;;;13.90;99.90;;;;;;5053286;28;20380;-73
2022/05/07 01:50:12;;;;;;;1.23;1.13;;;13.90;99.90;;;;;;5053037;28;20229;-74
2022/05/07 01:52:40;;;;;;;3.03;1.10;;;13.90;99.90;;;;;;5051995;28;20203;-74
2022/05/07 01:55:09;;;;;;;1.10;1.00;;;13.90;99.90;;;;;;5052828;28;20310;-74
2022/05/07 01:57:37;;;;;;;2.20;1.10;;;13.90;99.90;;;;;;5046512;28;20207;-74
2022/05/07 02:00:06;;;;;;;1.92;1.30;;;13.80;99.90;;;;;;5046422;28;20306;-74
2022/05/07 02:02:34;;;;;;;1.60;1.00;;;13.80;99.90;;;;;;5045532;28;20235;-74
2022/05/07 02:05:02;;;;;;;1.60;1.00;;;13.80;99.90;;;;;;5048027;28;20314;-75
2022/05/07 02:07:30;;;;;;;2.00;1.50;;;13.80;99.90;;;;;;5046726;28;20299;-73
2022/05/07 02:09:58;;;;;;;1.40;1.27;;;13.80;99.90;;;;;;5046151;28;20299;-74
2022/05/07 02:12:29;;;;;;;1.70;1.20;;;13.80;99.90;;;;;;5045628;28;20207;-75
2022/05/07 02:14:57;;;;;;;1.60;1.20;;;13.80;99.90;;;;;;5052592;28;20607;-73
2022/05/07 02:17:25;;;;;;;1.30;1.05;;;13.70;99.90;;;;;;5052978;28;20236;-72
2022/05/07 02:19:53;;;;;;;3.40;1.20;;;13.60;99.90;;;;;;5052084;28;20227;-74
2022/05/07 02:22:21;;;;;;;2.55;1.27;;;13.60;99.90;;;;;;5051721;28;20748;-73
2022/05/07 02:24:50;;;;;;;2.10;1.38;;;13.60;99.90;;;;;;5052537;28;20247;-74
2022/05/07 02:27:18;;;;;;;1.45;1.30;;;13.50;99.90;;;;;;5052441;28;20303;-74
2022/05/07 02:29:47;;;;;;;2.30;1.10;;;13.50;99.90;;;;;;5052603;28;20216;-73
2022/05/07 02:32:15;;;;;;;1.88;1.30;;;13.40;99.90;;;;;;5051344;28;20346;-74
2022/05/07 02:34:42;;;;;;;1.83;1.30;;;13.20;99.90;;;;;;5051907;28;20619;-74
2022/05/07 02:37:11;;;;;;;1.75;1.65;;;13.10;99.90;;;;;;5052539;28;20644;-74
2022/05/07 02:39:39;;;;;;;0.82;0.80;;;13.00;99.90;;;;;;5051942;28;20764;-74
2022/05/07 02:44:56;;;;;;;1.27;1.00;;;12.90;99.90;;;;;;5048444;28;20240;-73
2022/05/07 02:47:24;;;;;;;4.22;1.23;;;12.90;99.90;;;;;;5053466;28;20631;-73
2022/05/07 02:49:52;;;;;;;1.55;1.08;;;12.90;99.90;;;;;;5051803;28;20189;-71
2022/05/07 02:52:20;;;;;;;2.17;1.27;;;13.00;99.90;;;;;;5051102;28;21010;-71
2022/05/07 02:54:48;;;;;;;2.63;1.20;;;13.00;99.90;;;;;;5051864;28;20315;-72
2022/05/07 02:57:16;;;;;;;1.42;1.33;;;13.10;99.90;;;;;;5051417;28;20298;-71
2022/05/07 02:59:43;;;;;;;1.50;1.40;;;13.10;99.90;;;;;;5051877;28;20227;-73
2022/05/07 03:02:13;;;;;;;1.27;1.10;;;13.10;99.90;;;;;;5051187;28;20199;-72
2022/05/07 03:04:41;;;;;;;1.73;1.58;;;13.10;99.90;;;;;;5051730;28;20618;-72
2022/05/07 03:07:09;;;;;;;1.42;1.33;;;13.00;99.90;;;;;;5051525;28;20208;-73
2022/05/07 03:09:37;;;;;;;2.65;1.42;;;13.00;99.90;;;;;;5051377;28;20207;-73
2022/05/07 03:12:05;;;;;;;4.10;1.40;;;12.80;99.90;;;;;;5050723;28;20200;-71
2022/05/07 03:14:33;;;;;;;1.60;1.50;;;12.60;99.90;;;;;;5051613;28;20295;-71
2022/05/07 03:17:01;;;;;;;2.45;1.30;;;12.40;99.90;;;;;;5051567;28;20207;-72
2022/05/07 03:19:31;;;;;;;2.47;1.17;;;12.30;99.90;;;;;;5050973;28;20208;-71
2022/05/07 03:21:58;;;;;;;1.83;1.40;;;12.20;99.90;;;;;;5049894;28;20208;-69
2022/05/07 03:24:27;;;;;;;1.58;1.48;;;12.00;99.90;;;;;;5051376;28;20245;-72
2022/05/07 03:26:55;;;;;;;1.35;1.23;;;12.10;99.90;;;;;;5051429;28;20226;-71
2022/05/07 03:29:22;;;;;;;1.35;1.10;;;12.20;99.90;;;;;;5051314;28;20204;-72
2022/05/07 03:31:50;;;;;;;2.58;1.35;;;12.20;99.90;;;;;;5051224;28;20204;-71
2022/05/07 03:34:18;;;;;;;2.25;1.45;;;12.10;99.90;;;;;;5050544;28;20817;-71
2022/05/07 03:36:47;;;;;;;1.90;1.60;;;12.20;99.90;;;;;;5050734;28;20274;-73
2022/05/07 03:39:15;;;;;;;1.38;1.20;;;12.10;99.90;;;;;;5051222;28;20622;-73
2022/05/07 03:41:43;;;;;;;2.60;1.20;;;12.00;99.90;;;;;;5051026;28;20208;-73
2022/05/07 03:44:11;;;;;;;1.65;1.38;;;12.00;99.90;;;;;;5050533;28;20235;-71
2022/05/07 03:46:39;;;;;;;2.00;1.90;;;11.90;99.90;;;;;;5050944;28;20224;-71
2022/05/07 03:49:07;;;;;;;1.85;1.63;;;12.00;99.90;;;;;;5049193;28;20298;-73
2022/05/07 03:53:29;;;;;;;1.70;1.60;;;12.00;99.90;;;;;;5050298;28;20203;-72
2022/05/07 03:54:23;;;;;;;2.65;1.52;;;12.00;99.90;;;;;;5047009;28;20212;-72
2022/05/07 03:56:51;;;;;;;1.60;1.50;;;11.80;99.90;;;;;;5050925;28;20314;-72
2022/05/07 03:59:19;;;;;;;2.65;1.60;;;11.70;99.90;;;;;;5050726;28;20277;-72
2022/05/07 04:01:47;;;;;;;2.90;1.40;;;11.60;99.90;;;;;;5050678;28;20235;-71
2022/05/07 04:04:15;;;;;;;1.63;1.48;;;11.60;99.90;;;;;;5050024;28;20212;-72
2022/05/07 04:06:43;;;;;;;1.73;1.33;;;11.80;99.90;;;;;;5050974;28;20267;-72
2022/05/07 04:09:11;;;;;;;1.80;1.70;;;11.60;99.90;;;;;;5050782;28;20208;-72
2022/05/07 04:11:40;;;;;;;1.63;1.48;;;11.70;99.90;;;;;;5050574;28;20204;-72
2022/05/07 04:14:08;;;;;;;2.00;1.80;;;11.70;99.90;;;;;;5050127;28;20291;-72
2022/05/07 04:16:36;;;;;;;1.80;1.50;;;11.70;99.90;;;;;;5050606;28;20306;-72
2022/05/07 04:19:11;;;;;;;2.55;1.50;;;11.60;99.90;;;;;;5050677;28;20214;-71
2022/05/07 04:21:39;;;;;;;2.55;1.60;;;11.50;99.90;;;;;;5048083;28;20255;-71
2022/05/07 04:24:07;;;;;;;1.80;1.70;;;11.60;99.90;;;;;;5050079;28;20258;-71
2022/05/07 04:26:35;;;;;;;2.10;1.90;;;11.60;99.90;;;;;;5050491;28;20242;-71
2022/05/07 04:29:04;;;;;;;4.18;1.40;;;11.50;99.90;;;;;;5050768;28;20227;-72
2022/05/07 04:31:32;;;;;;;2.72;1.50;;;11.60;99.90;;;;;;5050587;28;20204;-71
2022/05/07 04:34:00;;;;;;;1.42;1.33;;;11.70;99.90;;;;;;5053724;28;20708;-72
2022/05/07 04:36:28;;;;;;;3.00;2.28;;;11.80;99.90;;;;;;5067032;22;20241;-63
2022/05/07 04:38:56;;;;;;;2.60;1.38;;;12.00;99.90;;;;;;5021755;28;20670;-63
2022/05/07 04:41:23;;;;;;;2.97;1.70;;;12.10;99.90;;;;;;5032069;28;20309;-62
2022/05/07 04:43:51;;;;;;;2.70;1.75;;;12.10;99.90;;;;;;5014829;28;20276;-63
2022/05/07 04:46:20;;;;;;;6.38;1.52;;;12.20;99.90;;;;;;5004224;28;20251;-63
2022/05/07 04:48:49;;;;;;;2.17;1.98;;;12.30;99.90;;;;;;5002426;28;20202;-63
2022/05/07 04:51:17;;;;;;;1.70;1.60;;;12.40;99.90;;;;;;5012017;28;20272;-63
2022/05/07 04:54:05;;;;;;;2.63;1.60;;;12.50;99.90;;;;;;5009363;28;20212;-63
2022/05/07 04:56:33;;;;;;;2.50;1.40;;;12.30;99.90;;;;;;5004000;28;20229;-64
2022/05/07 04:59:01;;;;;;;1.85;1.60;;;12.20;99.90;;;;;;4999367;28;20237;-64
2022/05/07 05:01:30;;;;;;;1.50;1.40;;;12.30;99.90;;;;;;4993953;28;20321;-64
2022/05/07 05:03:58;;;;;;;1.60;1.42;;;12.30;99.90;;;;;;4992011;28;20961;-64
2022/05/07 05:06:27;;;;;;;1.88;1.58;;;12.30;99.90;;;;;;4992983;28;20229;-64
2022/05/07 05:08:54;;;;;;;2.75;2.00;;;12.10;99.90;;;;;;4992126;28;20237;-63
2022/05/07 05:11:22;;;;;;;2.88;2.15;;;12.20;99.90;;;;;;4991891;28;20693;-66
2022/05/07 05:13:50;;;;;;;1.90;1.80;;;12.20;99.90;;;;;;4994695;28;20283;-64
2022/05/07 05:16:18;;;;;;;2.60;1.90;;;12.20;99.90;;;;;;4987961;28;20873;-63
2022/05/07 05:18:47;;;;;;;1.70;1.45;;;12.20;99.90;;;;;;4994521;28;20228;-63
2022/05/07 05:21:15;;;;;;;1.40;1.30;;;12.40;99.90;;;;;;4991323;28;20253;-63
2022/05/07 05:23:46;;;;;;;1.58;1.48;;;12.50;99.90;;;;;;4995696;28;20291;-63
2022/05/07 05:26:14;;;;;;;5.95;1.90;;;12.50;99.90;;;;;;4990344;28;20231;-63
2022/05/07 05:28:43;;;;;;;3.28;1.27;;;12.60;99.90;;;;;;4998247;28;20255;-63
2022/05/07 05:31:11;;;;;;;2.65;1.55;;;12.60;99.90;;;;;;4989911;28;20208;-64
2022/05/07 05:33:39;;;;;;;2.35;1.73;;;12.70;99.90;;;;;;4996989;28;20213;-64
2022/05/07 05:36:08;;;;;;;1.90;1.60;;;12.80;99.90;;;;;;4991851;28;20665;-64
2022/05/07 05:38:36;;;;;;;2.78;1.40;;;12.90;99.90;;;;;;4992031;28;20320;-65
2022/05/07 05:41:03;;;;;;;2.47;1.88;;;13.00;99.90;;;;;;4995518;28;20333;-64
2022/05/07 05:43:31;;;;;;;2.08;1.73;;;13.00;99.90;;;;;;4993358;28;20219;-64
2022/05/07 05:45:59;;;;;;;2.85;1.95;;;13.10;99.90;;;;;;4991456;28;20272;-63
2022/05/07 05:48:29;;;;;;;2.13;1.90;;;13.30;99.90;;;;;;4991773;28;20213;-64
2022/05/07 05:50:57;;;;;;;1.58;1.48;;;13.40;99.90;;;;;;4994351;28;20279;-63
2022/05/07 05:53:26;;;;;;;2.05;1.95;;;13.40;99.90;;;;;;4992735;28;20217;-64
2022/05/07 05:55:54;;;;;;;1.73;1.40;;;13.50;99.90;;;;;;4996324;28;20241;-64
2022/05/07 05:58:22;;;;;;;1.80;1.70;;;13.50;99.90;;;;;;4993058;28;20233;-64
2022/05/07 06:00:52;;;;;;;3.38;2.28;;;13.60;99.90;;;;;;4995473;28;20225;-63
2022/05/07 06:03:20;;;;;;;2.75;2.17;;;13.70;99.90;;;;;;4991314;28;20331;-63
2022/05/07 06:05:49;;;;;;;2.67;1.52;;;13.80;99.90;;;;;;4984743;28;20201;-63
2022/05/07 06:08:17;;;;;;;2.03;1.80;;;13.90;99.90;;;;;;4996487;28;20255;-63
2022/05/07 06:10:46;;;;;;;2.05;1.85;;;14.00;99.90;;;;;;4993043;28;21428;-64
2022/05/07 06:13:14;;;;;;;1.83;1.52;;;14.00;99.90;;;;;;4991926;28;20233;-63
2022/05/07 06:15:42;;;;;;;2.20;1.80;;;14.10;99.90;;;;;;4991045;28;20216;-65
2022/05/07 06:18:10;;;;;;;3.65;1.92;;;14.20;99.90;;;;;;4993334;28;20311;-63
2022/05/07 06:20:38;;;;;;;1.90;1.80;;;14.30;99.90;;;;;;4990173;28;20201;-63
2022/05/07 06:23:05;;;;;;;2.13;1.92;;;14.50;99.90;;;;;;4993027;28;20208;-63
2022/05/07 06:28:23;;;;;;;2.95;2.40;;;14.80;99.90;;;;;;4979573;28;21009;-66
2022/05/07 06:30:51;;;;;;;4.63;2.10;;;14.90;99.90;;;;;;4994601;28;21797;-64
2022/05/07 06:33:19;;;;;;;2.70;2.17;;;15.10;99.90;;;;;;4992812;28;21055;-64
2022/05/07 06:35:46;;;;;;;1.88;1.77;;;15.20;99.90;;;;;;4989561;28;20206;-63
2022/05/07 06:38:16;;;;;;;3.17;1.90;;;15.20;99.90;;;;;;4974643;28;20308;-63
2022/05/07 06:40:44;;;;;;;2.10;1.85;;;15.30;99.90;;;;;;4977029;28;20226;-63
2022/05/07 06:43:11;;;;;;;3.33;2.60;;;15.50;99.90;;;;;;4968224;28;20199;-64
2022/05/07 06:45:41;;;;;;;3.35;2.50;;;15.60;99.90;;;;;;4971907;28;20231;-63
2022/05/07 06:48:11;;;;;;;3.67;2.72;;;15.70;99.90;;;;;;4970242;28;20242;-64
2022/05/07 06:50:40;;;;;;;2.95;2.60;;;15.80;99.90;;;;;;4973909;28;20203;-63
2022/05/07 06:53:07;;;;;;;2.58;2.35;;;15.90;99.90;;;;;;4971679;28;20290;-63
2022/05/07 06:55:54;;;;;;;3.72;2.78;;;16.00;99.90;;;;;;4972381;28;20203;-63
2022/05/07 06:58:23;;;;;;;5.00;3.05;;;16.10;99.90;;;;;;4972597;28;20203;-64
2022/05/07 07:00:59;;;;;;;4.40;2.53;;;16.10;99.90;;;;;;4970412;28;20289;-63
2022/05/07 07:03:27;;;;;;;6.00;2.50;;;16.00;99.90;;;;;;4974212;28;20198;-63
2022/05/07 07:05:59;;;;;;;2.85;2.65;;;15.90;99.90;;;;;;4973101;28;20199;-62
2022/05/07 07:08:29;;;;;;;2.75;2.55;;;16.10;99.90;;;;;;4972858;28;20326;-63
2022/05/07 07:10:57;;;;;;;2.72;2.53;;;16.20;99.90;;;;;;4972262;28;20281;-63
2022/05/07 07:13:25;;;;;;;3.75;2.75;;;16.30;99.90;;;;;;4971529;28;20194;-63
2022/05/07 07:15:54;;;;;;;3.38;3.08;;;16.20;99.90;;;;;;4972402;28;20587;-63
2022/05/07 07:18:24;;;;;;;4.00;2.72;;;16.30;99.90;;;;;;4978378;28;20282;-64
2022/05/07 07:20:52;;;;;;;3.47;2.63;;;16.40;99.90;;;;;;4971924;28;20210;-65
2022/05/07 07:23:20;;;;;;;4.93;3.78;;;16.30;99.90;;;;;;4971326;28;20639;-63
2022/05/07 07:25:47;;;;;;;3.30;2.97;;;16.40;99.90;;;;;;4972410;28;20210;-64
2022/05/07 07:28:15;;;;;;;5.25;3.05;;;16.50;99.90;;;;;;4972583;28;20207;-64
2022/05/07 07:30:43;;;;;;;4.03;3.65;;;16.60;99.90;;;;;;4972606;28;20632;-64
2022/05/07 07:33:13;;;;;;;5.10;3.28;;;16.80;99.90;;;;;;4971589;28;20293;-64
2022/05/07 07:35:42;;;;;;;3.30;3.00;;;16.90;99.90;;;;;;4972391;28;20242;-64
2022/05/07 07:38:10;;;;;;;4.25;3.10;;;17.10;99.90;;;;;;5010826;28;20269;-64
2022/05/07 07:40:39;;;;;;;3.40;2.50;;;17.10;99.90;;;;;;5011962;28;20233;-64
2022/05/07 07:43:07;;;;;;;6.35;3.28;;;17.20;99.90;;;;;;5029786;28;20307;-65
2022/05/07 07:48:20;;;;;;;2.55;2.35;;;17.70;99.90;;;;;;5011908;28;20674;-64
2022/05/07 07:50:50;;;;;;;3.92;3.35;;;17.70;99.90;;;;;;5012506;28;20293;-65
2022/05/07 07:53:22;;;;;;;3.15;2.90;;;17.80;99.90;;;;;;5016189;28;20201;-64
2022/05/07 07:55:50;;;;;;;3.55;3.20;;;17.80;99.90;;;;;;5011619;28;20220;-64
2022/05/07 07:58:18;;;;;;;2.60;2.40;;;17.90;99.90;;;;;;5011816;28;20240;-64
2022/05/07 08:00:46;;;;;;;4.50;2.60;;;18.10;99.90;;;;;;5011619;28;20229;-64
2022/05/07 08:03:16;;;;;;;3.40;2.42;;;18.30;99.90;;;;;;5010545;28;20702;-64
2022/05/07 08:05:46;;;;;;;6.40;2.72;;;18.40;99.90;;;;;;5011457;28;20677;-65
2022/05/07 08:13:48;;;;;;;2.95;2.20;;;19.10;99.60;;;;;;5029585;28;20252;-64
2022/05/07 08:16:18;;;;;;;6.28;2.50;;;19.30;98.70;;;;;;5030022;28;20224;-63
2022/05/07 08:18:47;;;;;;;3.00;2.70;;;19.50;98.60;;;;;;5030137;28;20220;-64
2022/05/07 08:21:16;;;;;;;3.25;2.75;;;19.60;98.70;;;;;;5020538;28;20650;-64
2022/05/07 08:23:45;;;;;;;4.82;2.50;;;19.80;98.30;;;;;;5028449;28;20252;-65
2022/05/07 08:26:13;;;;;;;3.13;2.78;;;20.10;99.30;;;;;;5030406;28;20228;-65
2022/05/07 08:28:41;;;;;;;6.85;2.40;;;20.40;98.30;;;;;;5030185;28;20629;-64
2022/05/07 08:31:11;;;;;;;9.25;2.75;;;20.50;97.30;;;;;;5030260;28;20200;-64
2022/05/07 08:33:41;;;;;;;3.40;2.40;;;20.60;97.70;;;;;;5029169;28;20216;-65
2022/05/07 08:36:10;;;;;;;3.30;2.60;;;20.80;96.90;;;;;;5029356;28;20244;-65
2022/05/07 08:38:38;;;;;;;2.65;2.45;;;21.00;96.90;;;;;;5030384;28;20292;-65
2022/05/07 08:41:07;;;;;;;2.40;2.20;;;21.20;96.80;;;;;;5030176;28;20292;-65
2022/05/07 08:43:37;;;;;;;3.22;2.92;;;21.50;96.80;;;;;;5029124;28;20247;-65
2022/05/07 08:46:10;;;;;;;5.10;2.65;;;21.60;95.60;;;;;;5029859;28;20246;-64
2022/05/07 08:48:41;;;;;;;2.65;2.42;;;21.60;95.40;;;;;;5030247;28;20211;-64
2022/05/07 08:51:09;;;;;;;8.25;2.13;;;21.90;95.80;;;;;;5014655;28;20256;-65
2022/05/07 08:53:38;;;;;;;3.15;2.10;;;21.90;96.30;;;;;;5016305;28;20229;-64
2022/05/07 08:56:08;;;;;;;2.65;2.17;;;22.10;94.60;;;;;;5011067;28;20221;-65
2022/05/07 08:58:36;;;;;;;4.32;2.90;;;22.50;94.20;;;;;;5011060;28;20206;-65
2022/05/07 09:01:05;;;;;;;2.78;2.10;;;22.60;93.00;;;;;;5010810;28;20232;-65
2022/05/07 09:03:43;;;;;;;2.20;1.85;;;22.70;93.60;;;;;;5010287;28;20228;-65
2022/05/07 09:06:18;;;;;;;2.85;2.42;;;23.00;93.00;;;;;;5010754;28;20660;-65
2022/05/07 09:08:47;;;;;;;3.63;2.60;;;23.00;92.40;;;;;;5010996;28;20292;-65
2022/05/07 09:11:18;;;;;;;4.70;2.55;;;23.20;93.10;;;;;;5010825;28;20205;-65
2022/05/07 09:13:46;;;;;;;4.82;2.08;;;23.30;92.50;;;;;;5010233;28;20564;-65
2022/05/07 09:16:14;;;;;;;1.65;1.50;;;23.30;92.10;;;;;;5010744;28;20225;-64
2022/05/07 09:18:49;;;;;;;2.50;2.10;;;23.50;92.20;;;;;;5011003;28;20216;-65
2022/05/07 09:21:17;;;;;;;1.83;1.73;;;23.50;91.80;;;;;;5021580;28;20243;-64
2022/05/07 09:23:47;;;;;;;4.20;2.35;;;23.70;91.60;;;;;;5031546;28;20587;-64
2022/05/07 09:26:26;;;;;;;3.88;2.20;;;23.80;91.50;;;;;;5033197;28;20251;-65
2022/05/07 09:28:55;;;;;;;5.78;1.85;;;24.00;90.10;;;;;;5033490;28;20236;-65
2022/05/07 09:31:24;;;;;;;4.18;1.75;;;24.30;90.30;;;;;;5033259;28;20624;-65
2022/05/07 09:33:53;;;;;;;2.25;2.05;;;24.50;90.10;;;;;;5032091;28;20211;-65
2022/05/07 09:36:22;;;;;;;3.28;1.80;;;24.90;90.20;;;;;;5032824;28;20244;-70
2022/05/07 09:38:59;;;;;;;2.08;1.55;;;24.90;87.20;;;;;;5033179;28;20616;-64
2022/05/07 09:41:29;;;;;;;2.17;1.98;;;25.20;84.50;;;;;;5007877;28;20255;-65
2022/05/07 09:43:59;;;;;;;4.65;1.80;;;25.10;84.00;;;;;;5007012;28;20300;-65
2022/05/07 09:46:30;;;;;;;5.28;1.90;;;25.10;87.30;;;;;;5013326;28;20225;-65
2022/05/07 09:49:03;;;;;;;2.83;2.15;;;25.20;85.90;;;;;;5013977;28;20541;-64
2022/05/07 09:51:31;;;;;;;4.03;1.92;;;25.20;83.70;;;;;;5015223;28;20733;-65
2022/05/07 09:59:33;;;;;;;4.03;2.05;;;25.50;85.30;;;;;;5017612;28;20259;-65
2022/05/07 10:02:12;;;;;;;3.45;2.25;;;25.70;85.10;;;;;;5032008;28;20200;-66
2022/05/07 10:04:52;;;;;;;2.58;2.38;;;25.80;82.20;;;;;;5008751;28;20225;-65
2022/05/07 10:07:38;;;;;;;2.10;1.90;;;25.70;81.20;;;;;;5012961;28;20705;-65
2022/05/07 10:10:20;;;;;;;2.25;1.85;;;25.90;80.80;;;;;;5013639;28;20212;-65
2022/05/07 10:12:49;;;;;;;1.75;1.42;;;26.00;80.10;;;;;;5006952;28;20206;-65
2022/05/07 10:15:23;;;;;;;2.10;1.90;;;26.20;79.50;;;;;;5012913;28;20272;-65
2022/05/07 10:18:02;;;;;;;3.75;1.80;;;26.00;78.10;;;;;;5013207;28;20232;-65
2022/05/07 10:20:39;;;;;;;3.95;2.17;;;25.90;81.30;;;;;;5015772;28;20193;-65
2022/05/07 10:23:08;;;;;;;3.33;1.70;;;26.00;79.60;;;;;;5021081;28;20319;-67
2022/05/07 10:25:36;;;;;;;2.17;1.73;;;26.10;77.30;;;;;;5031551;28;20681;-66
2022/05/07 10:28:13;;;;;;;3.55;1.77;;;26.20;80.40;;;;;;5031842;28;20350;-65
2022/05/07 10:30:49;;;;;;;2.08;1.98;;;26.20;78.10;;;;;;5031680;28;20201;-65
2022/05/07 10:33:18;;;;;;;1.90;1.70;;;26.20;78.70;;;;;;5031423;28;20200;-67
2022/05/07 10:35:49;;;;;;;3.13;1.77;;;26.30;77.90;;;;;;5006690;28;20216;-65
2022/05/07 10:38:26;;;;;;;1.58;1.38;;;26.20;77.30;;;;;;5063155;22;20339;-64
2022/05/07 10:40:55;;;;;;;2.65;2.45;;;26.40;79.00;;;;;;5035398;28;20246;-64
2022/05/07 10:43:29;;;;;;;4.88;2.95;;;26.30;78.10;;;;;;5031813;28;20246;-66
2022/05/07 10:46:01;;;;;;;3.65;2.10;;;25.90;75.90;;;;;;5032693;28;20206;-66
2022/05/07 10:48:29;;;;;;;3.80;2.33;;;25.70;76.80;;;;;;5032232;28;20224;-66
2022/05/07 10:51:02;;;;;;;2.55;2.30;;;25.70;76.40;;;;;;5035160;28;20589;-65
2022/05/07 10:53:38;;;;;;;2.25;1.70;;;25.90;75.10;;;;;;5037617;28;20201;-62
2022/05/07 10:56:12;;;;;;;2.45;2.03;;;25.90;75.00;;;;;;5031935;28;20204;-63
2022/05/07 10:58:47;;;;;;;2.50;2.30;;;26.10;78.80;;;;;;5031901;28;20278;-63
2022/05/07 11:01:17;;;;;;;5.30;2.28;;;26.00;77.50;;;;;;5025690;28;20656;-63
2022/05/07 11:03:45;;;;;;;1.90;1.80;;;26.10;77.70;;;;;;5030823;28;20247;-62
2022/05/07 11:06:13;;;;;;;4.30;2.00;;;25.90;74.40;;;;;;5031484;28;20645;-63
2022/05/07 11:08:49;;;;;;;4.05;2.30;;;26.10;76.60;;;;;;5031706;28;20282;-64
2022/05/07 11:11:17;;;;;;;1.77;1.67;;;26.10;74.50;;;;;;5031996;28;20204;-64
2022/05/07 11:13:49;;;;;;;2.38;1.92;;;26.00;76.50;;;;;;5030500;28;20200;-64
2022/05/07 11:16:17;;;;;;;1.92;1.80;;;26.10;76.50;;;;;;5031571;28;20232;-63
2022/05/07 11:18:49;;;;;;;3.53;1.90;;;26.50;75.10;;;;;;5031637;28;20228;-64
2022/05/07 11:21:17;;;;;;;2.83;1.67;;;26.30;75.30;;;;;;5037840;28;20216;-64
2022/05/07 11:23:45;;;;;;;2.28;1.63;;;26.70;73.60;;;;;;5031242;28;20769;-63
2022/05/07 11:26:16;;;;;;;3.05;2.45;;;26.60;76.30;;;;;;5031008;28;20734;-62
2022/05/07 11:28:48;;;;;;;4.28;2.15;;;26.70;73.10;;;;;;5031275;28;20288;-64
2022/05/07 11:31:27;;;;;;;2.03;1.83;;;26.80;75.30;;;;;;5031518;28;20251;-64
2022/05/07 11:34:02;;;;;;;1.77;1.67;;;26.80;73.40;;;;;;5030548;28;20204;-63
2022/05/07 11:36:31;;;;;;;3.05;1.90;;;27.10;72.90;;;;;;5030772;28;20254;-64
2022/05/07 11:39:00;;;;;;;2.55;1.70;;;26.90;73.10;;;;;;5051248;28;20196;-63
2022/05/07 11:41:28;;;;;;;2.83;1.90;;;26.40;74.60;;;;;;5044652;28;20278;-64
2022/05/07 11:47:21;;;;;;;2.95;2.20;;;26.40;72.30;;;;;;5050649;28;20254;-64
2022/05/07 11:50:02;;;;;;;2.85;1.85;;;26.70;74.20;;;;;;5051630;28;20210;-64
2022/05/07 11:52:31;;;;;;;3.40;2.00;;;26.60;76.70;;;;;;5060146;28;20708;-65
2022/05/07 11:55:04;;;;;;;3.95;2.40;;;26.60;74.50;;;;;;5050361;28;20253;-63
2022/05/07 11:57:34;;;;;;;1.92;1.65;;;27.30;72.70;;;;;;5050213;28;20266;-64
2022/05/07 12:00:15;;;;;;;3.15;1.90;;;28.10;72.50;;;;;;5050489;28;20219;-64
2022/05/07 12:02:55;;;;;;;3.28;2.97;;;28.70;71.60;;;;;;5050590;28;20204;-63
2022/05/07 12:05:25;;;;;;;4.00;2.92;;;28.60;71.90;;;;;;5050526;28;20265;-64
2022/05/07 12:07:54;;;;;;;3.05;2.03;;;27.90;71.20;;;;;;5050540;28;20228;-64
2022/05/07 12:10:23;;;;;;;2.33;2.08;;;28.20;73.00;;;;;;5050640;28;20727;-65
2022/05/07 12:12:51;;;;;;;2.95;1.90;;;28.20;72.10;;;;;;5050095;28;20257;-64
2022/05/07 12:18:03;;;;;;;8.20;2.72;;;28.80;68.60;;;;;;5049520;28;20798;-63
2022/05/07 12:20:31;;;;;;;2.30;2.10;;;29.20;69.90;;;;;;5054591;28;20287;-64
2022/05/07 12:31:17;;;;;;;5.28;2.20;;;27.40;70.80;;;;;;5050327;28;20223;-64
2022/05/07 12:33:45;;;;;;;6.00;2.75;;;26.70;72.20;;;;;;5049967;28;20211;-63
2022/05/07 12:36:13;;;;;;;3.50;1.92;;;26.20;70.70;;;;;;5050208;28;20238;-64
2022/05/07 12:38:40;;;;;;;3.65;2.50;;;26.60;71.30;;;;;;5050361;28;20297;-65
2022/05/07 12:41:08;;;;;;;4.18;2.67;;;26.70;72.00;;;;;;5050465;28;20240;-64
2022/05/07 12:43:36;;;;;;;5.15;2.20;;;27.20;71.20;;;;;;5049559;28;20258;-65
2022/05/07 12:46:04;;;;;;;2.10;1.90;;;27.40;70.70;;;;;;5050291;28;20290;-64
2022/05/07 12:48:33;;;;;;;2.20;2.00;;;27.80;71.90;;;;;;5050333;28;20226;-64
2022/05/07 12:51:01;;;;;;;3.20;2.20;;;27.90;69.50;;;;;;5053420;28;20257;-64
2022/05/07 12:53:29;;;;;;;4.50;2.40;;;27.70;70.90;;;;;;5057149;28;20237;-63
2022/05/07 12:55:57;;;;;;;3.28;1.92;;;26.60;69.80;;;;;;5053732;28;20360;-65
2022/05/07 12:58:25;;;;;;;4.65;4.18;;;25.90;71.30;;;;;;5054011;28;20224;-64
2022/05/07 13:00:53;;;;;;;3.08;2.63;;;25.90;71.10;;;;;;5054037;28;20214;-64
2022/05/07 13:03:21;;;;;;;4.50;2.60;;;26.30;69.60;;;;;;5053429;28;20229;-63
2022/05/07 13:05:50;;;;;;;3.85;3.25;;;26.20;69.70;;;;;;5053679;28;20255;-64
2022/05/07 13:08:20;;;;;;;3.63;3.05;;;26.20;70.70;;;;;;5054030;28;20228;-64
2022/05/07 13:10:49;;;;;;;3.97;2.20;;;26.10;71.00;;;;;;5053847;28;20200;-64
2022/05/07 13:13:18;;;;;;;4.90;2.53;;;25.80;71.00;;;;;;5053008;28;20200;-64
2022/05/07 13:15:46;;;;;;;4.55;2.47;;;26.20;71.20;;;;;;5053597;28;20195;-66
2022/05/07 13:18:15;;;;;;;1.80;1.58;;;27.00;71.10;;;;;;5053780;28;20569;-63
2022/05/07 13:20:43;;;;;;;2.45;2.25;;;27.30;70.40;;;;;;5057784;28;21053;-64
2022/05/07 13:23:13;;;;;;;4.05;2.53;;;27.50;70.00;;;;;;5054509;28;20727;-64
2022/05/07 13:25:41;;;;;;;2.97;2.03;;;27.20;69.40;;;;;;5053655;28;20251;-64
2022/05/07 13:28:09;;;;;;;4.15;2.95;;;27.00;69.40;;;;;;5053445;28;20224;-64
2022/05/07 13:30:37;;;;;;;2.50;2.08;;;27.00;69.20;;;;;;5053663;28;20228;-64
2022/05/07 13:33:05;;;;;;;3.85;1.95;;;27.30;71.20;;;;;;5053154;28;20253;-64
2022/05/07 13:35:32;;;;;;;2.00;1.90;;;27.50;69.00;;;;;;5053326;28;20200;-64
2022/05/07 13:38:00;;;;;;;3.10;2.00;;;27.50;68.10;;;;;;5052833;28;20769;-64